Terminal Aerodrome Forecast
Issued by NWS

Home | Current Version | Previous Version | Text Only | Print | Product List | Glossary On
Versions: 1 2 3 4 5 6 7 8 9 10 11 12 13 14 15 16 17 18 19 20 21 22
563
FTUS43 KDVN 242338
TAFCID
TAF
KCID 242338Z 2500/2524 11007KT P6SM SCT050
     FM250200 12008KT 4SM BR SCT100
     FM250600 13008KT 3SM BR SCT001 BKN050
     FM250800 14007KT 2SM BR VCSH BKN040
     FM251300 17007KT 5SM BR BKN050 PROB30 2516/2519 6SM SHRA BR
      BKN035=

USA.gov is the U.S. government's official web portal to all federal, state and local government web resources and services.